sensor_id;sensor_type;location;lat;lon;timestamp;pressure;altitude;pressure_sealevel;temperature;humidity
43147;BME280;28752;48.266;7.402;2024-01-10T00:01:00;100247.25;;;1.03;64.27
43147;BME280;28752;48.266;7.402;2024-01-10T00:03:25;100249.25;;;1.38;63.41
43147;BME280;28752;48.266;7.402;2024-01-10T00:05:51;100252.59;;;1.41;63.26
43147;BME280;28752;48.266;7.402;2024-01-10T00:08:16;100250.56;;;1.07;63.76
43147;BME280;28752;48.266;7.402;2024-01-10T00:10:41;100245.34;;;1.07;63.79
43147;BME280;28752;48.266;7.402;2024-01-10T00:13:06;100239.63;;;0.56;65.81
43147;BME280;28752;48.266;7.402;2024-01-10T00:15:32;100240.66;;;1.15;63.94
43147;BME280;28752;48.266;7.402;2024-01-10T00:17:57;100240.28;;;1.24;63.80
43147;BME280;28752;48.266;7.402;2024-01-10T00:20:22;100232.81;;;1.15;63.60
43147;BME280;28752;48.266;7.402;2024-01-10T00:22:48;100241.88;;;1.48;62.89
43147;BME280;28752;48.266;7.402;2024-01-10T00:25:13;100240.56;;;1.37;63.28
43147;BME280;28752;48.266;7.402;2024-01-10T00:27:38;100237.56;;;1.47;63.22
43147;BME280;28752;48.266;7.402;2024-01-10T00:30:05;100235.47;;;0.73;64.60
43147;BME280;28752;48.266;7.402;2024-01-10T00:32:30;100237.41;;;1.10;63.84
43147;BME280;28752;48.266;7.402;2024-01-10T00:34:56;100239.94;;;1.32;62.92
43147;BME280;28752;48.266;7.402;2024-01-10T00:37:21;100236.53;;;1.30;63.28
43147;BME280;28752;48.266;7.402;2024-01-10T00:39:46;100239.06;;;1.32;62.70
43147;BME280;28752;48.266;7.402;2024-01-10T00:42:12;100238.25;;;1.50;62.39
43147;BME280;28752;48.266;7.402;2024-01-10T00:44:37;100238.53;;;1.44;62.54
43147;BME280;28752;48.266;7.402;2024-01-10T00:47:03;100236.94;;;1.60;61.94
43147;BME280;28752;48.266;7.402;2024-01-10T00:49:28;100236.59;;;1.68;61.74
43147;BME280;28752;48.266;7.402;2024-01-10T00:51:54;100227.41;;;1.20;62.65
43147;BME280;28752;48.266;7.402;2024-01-10T00:54:19;100233.09;;;0.88;63.17
43147;BME280;28752;48.266;7.402;2024-01-10T00:56:45;100232.16;;;0.89;63.72
43147;BME280;28752;48.266;7.402;2024-01-10T00:59:10;100229.63;;;1.09;63.45
43147;BME280;28752;48.266;7.402;2024-01-10T01:01:36;100227.22;;;0.83;63.56
43147;BME280;28752;48.266;7.402;2024-01-10T01:04:01;100228.28;;;0.79;63.96
43147;BME280;28752;48.266;7.402;2024-01-10T01:06:27;100228.47;;;0.95;64.07
43147;BME280;28752;48.266;7.402;2024-01-10T01:08:52;100230.03;;;0.99;63.41
43147;BME280;28752;48.266;7.402;2024-01-10T01:11:17;100233.47;;;1.00;63.41
43147;BME280;28752;48.266;7.402;2024-01-10T01:13:43;100228.72;;;0.89;63.56
43147;BME280;28752;48.266;7.402;2024-01-10T01:16:10;100233.75;;;1.14;63.17
43147;BME280;28752;48.266;7.402;2024-01-10T01:18:36;100231.84;;;1.18;62.93
43147;BME280;28752;48.266;7.402;2024-01-10T01:21:02;100239.47;;;1.22;62.69
43147;BME280;28752;48.266;7.402;2024-01-10T01:23:28;100233.03;;;1.50;61.44
43147;BME280;28752;48.266;7.402;2024-01-10T01:25:53;100239.63;;;1.59;60.91
43147;BME280;28752;48.266;7.402;2024-01-10T01:28:18;100243.22;;;1.56;60.81
43147;BME280;28752;48.266;7.402;2024-01-10T01:30:44;100240.28;;;1.64;60.52
43147;BME280;28752;48.266;7.402;2024-01-10T01:33:09;100233.50;;;1.20;61.35
43147;BME280;28752;48.266;7.402;2024-01-10T01:35:34;100239.81;;;1.54;60.99
43147;BME280;28752;48.266;7.402;2024-01-10T01:38:00;100250.25;;;1.54;60.78
43147;BME280;28752;48.266;7.402;2024-01-10T01:40:25;100248.66;;;1.71;60.25
43147;BME280;28752;48.266;7.402;2024-01-10T01:42:50;100249.94;;;1.81;60.06
43147;BME280;28752;48.266;7.402;2024-01-10T01:45:16;100241.63;;;1.33;61.87
43147;BME280;28752;48.266;7.402;2024-01-10T01:47:41;100237.78;;;1.21;62.19
43147;BME280;28752;48.266;7.402;2024-01-10T01:50:07;100237.97;;;1.17;62.33
43147;BME280;28752;48.266;7.402;2024-01-10T01:52:33;100243.72;;;1.04;62.28
43147;BME280;28752;48.266;7.402;2024-01-10T01:55:00;100243.59;;;1.08;62.46
43147;BME280;28752;48.266;7.402;2024-01-10T01:57:26;100250.50;;;1.09;62.25
43147;BME280;28752;48.266;7.402;2024-01-10T01:59:51;100251.09;;;1.15;62.22
43147;BME280;28752;48.266;7.402;2024-01-10T02:02:17;100248.81;;;1.08;62.25
43147;BME280;28752;48.266;7.402;2024-01-10T02:04:43;100251.88;;;1.17;61.80
43147;BME280;28752;48.266;7.402;2024-01-10T02:07:10;100247.97;;;1.07;61.94
43147;BME280;28752;48.266;7.402;2024-01-10T02:09:36;100243.97;;;0.98;62.29
43147;BME280;28752;48.266;7.402;2024-01-10T02:12:01;100249.16;;;1.39;61.25
43147;BME280;28752;48.266;7.402;2024-01-10T02:14:28;100254.72;;;1.32;60.99
43147;BME280;28752;48.266;7.402;2024-01-10T02:16:54;100254.50;;;1.17;61.56
43147;BME280;28752;48.266;7.402;2024-01-10T02:19:23;100254.22;;;1.03;62.14
43147;BME280;28752;48.266;7.402;2024-01-10T02:21:49;100247.63;;;1.15;61.96
43147;BME280;28752;48.266;7.402;2024-01-10T02:24:15;100258.28;;;1.50;61.40
43147;BME280;28752;48.266;7.402;2024-01-10T02:26:40;100254.09;;;1.66;60.35
43147;BME280;28752;48.266;7.402;2024-01-10T02:29:06;100252.38;;;1.65;60.11
43147;BME280;28752;48.266;7.402;2024-01-10T02:31:31;100254.94;;;1.67;60.46
43147;BME280;28752;48.266;7.402;2024-01-10T02:33:57;100254.03;;;1.68;60.22
43147;BME280;28752;48.266;7.402;2024-01-10T02:36:22;100247.91;;;1.69;59.90
43147;BME280;28752;48.266;7.402;2024-01-10T02:38:47;100248.72;;;1.69;59.78
43147;BME280;28752;48.266;7.402;2024-01-10T02:41:13;100235.97;;;1.63;59.83
43147;BME280;28752;48.266;7.402;2024-01-10T02:43:38;100241.75;;;1.70;59.76
43147;BME280;28752;48.266;7.402;2024-01-10T02:46:04;100245.84;;;1.75;59.78
43147;BME280;28752;48.266;7.402;2024-01-10T02:48:29;100245.63;;;1.80;59.84
43147;BME280;28752;48.266;7.402;2024-01-10T02:50:55;100243.72;;;1.84;59.91
43147;BME280;28752;48.266;7.402;2024-01-10T02:53:21;100246.16;;;1.88;59.96
43147;BME280;28752;48.266;7.402;2024-01-10T02:55:46;100247.75;;;1.91;59.93
43147;BME280;28752;48.266;7.402;2024-01-10T02:58:13;100248.03;;;1.66;60.21
43147;BME280;28752;48.266;7.402;2024-01-10T03:00:38;100240.28;;;1.64;60.79
43147;BME280;28752;48.266;7.402;2024-01-10T03:03:03;100236.59;;;1.68;60.64
43147;BME280;28752;48.266;7.402;2024-01-10T03:05:29;100222.97;;;1.22;61.75
43147;BME280;28752;48.266;7.402;2024-01-10T03:07:54;100223.44;;;1.11;62.43
43147;BME280;28752;48.266;7.402;2024-01-10T03:10:19;100228.63;;;1.52;61.20
43147;BME280;28752;48.266;7.402;2024-01-10T03:12:45;100217.44;;;1.49;61.32
43147;BME280;28752;48.266;7.402;2024-01-10T03:15:10;100220.63;;;1.55;61.09
43147;BME280;28752;48.266;7.402;2024-01-10T03:17:36;100221.06;;;1.46;61.29
43147;BME280;28752;48.266;7.402;2024-01-10T03:20:02;100230.69;;;1.44;61.42
43147;BME280;28752;48.266;7.402;2024-01-10T03:22:30;100224.84;;;1.39;61.42
43147;BME280;28752;48.266;7.402;2024-01-10T03:24:56;100228.28;;;1.39;61.34
43147;BME280;28752;48.266;7.402;2024-01-10T03:27:21;100219.97;;;1.31;61.39
43147;BME280;28752;48.266;7.402;2024-01-10T03:29:47;100222.72;;;1.28;61.21
43147;BME280;28752;48.266;7.402;2024-01-10T03:32:12;100228.69;;;1.30;61.51
43147;BME280;28752;48.266;7.402;2024-01-10T03:34:38;100223.63;;;1.27;61.57
43147;BME280;28752;48.266;7.402;2024-01-10T03:37:03;100224.34;;;1.31;61.36
43147;BME280;28752;48.266;7.402;2024-01-10T03:39:29;100230.59;;;1.27;61.37
43147;BME280;28752;48.266;7.402;2024-01-10T03:41:54;100233.56;;;1.19;61.43
43147;BME280;28752;48.266;7.402;2024-01-10T03:44:19;100236.22;;;1.17;60.73
43147;BME280;28752;48.266;7.402;2024-01-10T03:46:45;100235.00;;;1.05;60.89
43147;BME280;28752;48.266;7.402;2024-01-10T03:49:10;100231.31;;;0.68;61.40
43147;BME280;28752;48.266;7.402;2024-01-10T03:51:36;100235.28;;;0.34;62.81
43147;BME280;28752;48.266;7.402;2024-01-10T03:54:01;100226.69;;;0.32;63.60
43147;BME280;28752;48.266;7.402;2024-01-10T03:56:26;100225.28;;;0.24;63.82
43147;BME280;28752;48.266;7.402;2024-01-10T03:58:52;100210.75;;;0.18;64.27
43147;BME280;28752;48.266;7.402;2024-01-10T04:01:22;100219.44;;;0.19;64.40
43147;BME280;28752;48.266;7.402;2024-01-10T04:03:47;100220.13;;;0.22;64.49
43147;BME280;28752;48.266;7.402;2024-01-10T04:06:12;100216.47;;;0.28;64.33
43147;BME280;28752;48.266;7.402;2024-01-10T04:08:38;100219.97;;;0.27;64.34
43147;BME280;28752;48.266;7.402;2024-01-10T04:11:03;100225.03;;;0.30;64.46
43147;BME280;28752;48.266;7.402;2024-01-10T04:13:29;100224.34;;;0.26;64.67
43147;BME280;28752;48.266;7.402;2024-01-10T04:15:54;100222.69;;;0.24;64.76
43147;BME280;28752;48.266;7.402;2024-01-10T04:18:19;100216.28;;;0.53;63.89
43147;BME280;28752;48.266;7.402;2024-01-10T04:20:45;100218.69;;;0.80;62.71
43147;BME280;28752;48.266;7.402;2024-01-10T04:23:10;100211.13;;;0.31;64.00
43147;BME280;28752;48.266;7.402;2024-01-10T04:25:36;100204.75;;;0.16;64.38
43147;BME280;28752;48.266;7.402;2024-01-10T04:28:01;100213.66;;;0.10;64.73
43147;BME280;28752;48.266;7.402;2024-01-10T04:30:27;100215.00;;;0.21;64.50
43147;BME280;28752;48.266;7.402;2024-01-10T04:32:52;100218.63;;;0.16;64.69
43147;BME280;28752;48.266;7.402;2024-01-10T04:35:17;100219.50;;;0.17;64.53
43147;BME280;28752;48.266;7.402;2024-01-10T04:37:42;100212.75;;;0.11;64.69
43147;BME280;28752;48.266;7.402;2024-01-10T04:40:08;100219.31;;;0.22;64.71
43147;BME280;28752;48.266;7.402;2024-01-10T04:42:34;100229.75;;;0.42;64.31
43147;BME280;28752;48.266;7.402;2024-01-10T04:44:59;100230.34;;;0.71;63.19
43147;BME280;28752;48.266;7.402;2024-01-10T04:47:24;100229.31;;;0.75;62.62
43147;BME280;28752;48.266;7.402;2024-01-10T04:49:50;100236.09;;;0.79;62.39
43147;BME280;28752;48.266;7.402;2024-01-10T04:52:15;100232.63;;;0.79;62.30
43147;BME280;28752;48.266;7.402;2024-01-10T04:54:40;100226.63;;;0.34;63.95
43147;BME280;28752;48.266;7.402;2024-01-10T04:57:06;100224.91;;;0.33;64.32
43147;BME280;28752;48.266;7.402;2024-01-10T04:59:32;100227.72;;;0.28;64.80
43147;BME280;28752;48.266;7.402;2024-01-10T05:01:58;100229.22;;;0.34;65.06
43147;BME280;28752;48.266;7.402;2024-01-10T05:04:23;100224.38;;;0.47;64.78
43147;BME280;28752;48.266;7.402;2024-01-10T05:06:48;100222.38;;;0.53;64.72
43147;BME280;28752;48.266;7.402;2024-01-10T05:09:14;100215.97;;;1.03;63.26
43147;BME280;28752;48.266;7.402;2024-01-10T05:11:40;100217.50;;;0.66;64.01
43147;BME280;28752;48.266;7.402;2024-01-10T05:14:06;100208.97;;;0.63;64.68
43147;BME280;28752;48.266;7.402;2024-01-10T05:16:31;100208.16;;;0.61;64.64
43147;BME280;28752;48.266;7.402;2024-01-10T05:18:57;100213.50;;;0.58;64.82
43147;BME280;28752;48.266;7.402;2024-01-10T05:21:22;100215.97;;;0.61;65.13
43147;BME280;28752;48.266;7.402;2024-01-10T05:23:47;100219.19;;;0.67;65.11
43147;BME280;28752;48.266;7.402;2024-01-10T05:26:14;100213.09;;;0.68;65.21
43147;BME280;28752;48.266;7.402;2024-01-10T05:28:39;100206.75;;;0.74;64.80
43147;BME280;28752;48.266;7.402;2024-01-10T05:31:04;100208.56;;;0.72;65.12
43147;BME280;28752;48.266;7.402;2024-01-10T05:33:30;100218.75;;;0.78;64.96
43147;BME280;28752;48.266;7.402;2024-01-10T05:35:56;100216.13;;;0.78;64.75
43147;BME280;28752;48.266;7.402;2024-01-10T05:38:21;100207.63;;;0.75;64.48
43147;BME280;28752;48.266;7.402;2024-01-10T05:40:46;100217.03;;;0.57;64.76
43147;BME280;28752;48.266;7.402;2024-01-10T05:43:12;100219.84;;;0.52;64.74
43147;BME280;28752;48.266;7.402;2024-01-10T05:45:38;100216.91;;;0.60;64.39
43147;BME280;28752;48.266;7.402;2024-01-10T05:48:04;100207.13;;;0.44;64.92
43147;BME280;28752;48.266;7.402;2024-01-10T05:50:29;100217.44;;;0.68;64.10
43147;BME280;28752;48.266;7.402;2024-01-10T05:52:55;100214.75;;;0.69;63.55
43147;BME280;28752;48.266;7.402;2024-01-10T05:55:20;100211.63;;;0.61;63.22
43147;BME280;28752;48.266;7.402;2024-01-10T05:57:46;100217.81;;;0.59;63.27
43147;BME280;28752;48.266;7.402;2024-01-10T06:00:11;100216.16;;;0.56;63.20
43147;BME280;28752;48.266;7.402;2024-01-10T06:02:41;100220.28;;;0.41;63.24
43147;BME280;28752;48.266;7.402;2024-01-10T06:05:07;100229.41;;;0.29;63.57
43147;BME280;28752;48.266;7.402;2024-01-10T06:07:40;100222.72;;;-0.22;65.38
43147;BME280;28752;48.266;7.402;2024-01-10T06:10:06;100215.88;;;-0.48;66.35
43147;BME280;28752;48.266;7.402;2024-01-10T06:12:32;100221.75;;;-0.43;66.53
43147;BME280;28752;48.266;7.402;2024-01-10T06:14:57;100223.31;;;-0.63;66.73
43147;BME280;28752;48.266;7.402;2024-01-10T06:17:23;100223.91;;;-0.55;66.51
43147;BME280;28752;48.266;7.402;2024-01-10T06:19:48;100233.47;;;-0.31;66.19
43147;BME280;28752;48.266;7.402;2024-01-10T06:22:14;100224.72;;;-0.07;64.29
43147;BME280;28752;48.266;7.402;2024-01-10T06:24:41;100229.78;;;-0.49;65.12
43147;BME280;28752;48.266;7.402;2024-01-10T06:27:07;100232.13;;;-0.67;65.63
43147;BME280;28752;48.266;7.402;2024-01-10T06:29:33;100238.53;;;-0.76;65.95
43147;BME280;28752;48.266;7.402;2024-01-10T06:31:59;100242.53;;;-0.67;66.14
43147;BME280;28752;48.266;7.402;2024-01-10T06:34:26;100243.63;;;-0.73;66.26
43147;BME280;28752;48.266;7.402;2024-01-10T06:36:52;100242.88;;;-0.76;66.24
43147;BME280;28752;48.266;7.402;2024-01-10T06:39:17;100247.06;;;-0.72;66.09
43147;BME280;28752;48.266;7.402;2024-01-10T06:41:46;100243.03;;;-0.81;66.09
43147;BME280;28752;48.266;7.402;2024-01-10T06:44:11;100236.94;;;-0.80;66.13
43147;BME280;28752;48.266;7.402;2024-01-10T06:46:36;100239.47;;;-0.78;65.96
43147;BME280;28752;48.266;7.402;2024-01-10T06:49:02;100237.25;;;-0.89;65.96
43147;BME280;28752;48.266;7.402;2024-01-10T06:51:27;100241.63;;;-0.90;66.24
43147;BME280;28752;48.266;7.402;2024-01-10T06:53:53;100237.00;;;-0.81;66.21
43147;BME280;28752;48.266;7.402;2024-01-10T06:56:25;100236.66;;;-0.72;66.04
43147;BME280;28752;48.266;7.402;2024-01-10T06:58:50;100238.25;;;-0.68;66.17
43147;BME280;28752;48.266;7.402;2024-01-10T07:01:16;100238.16;;;-0.65;66.11
43147;BME280;28752;48.266;7.402;2024-01-10T07:03:41;100230.28;;;-0.63;65.97
43147;BME280;28752;48.266;7.402;2024-01-10T07:06:07;100234.50;;;-0.59;65.76
43147;BME280;28752;48.266;7.402;2024-01-10T07:08:32;100238.66;;;-0.55;65.70
43147;BME280;28752;48.266;7.402;2024-01-10T07:10:58;100244.91;;;-0.59;65.77
43147;BME280;28752;48.266;7.402;2024-01-10T07:13:23;100244.97;;;-0.62;66.05
43147;BME280;28752;48.266;7.402;2024-01-10T07:15:49;100248.28;;;-0.57;66.00
43147;BME280;28752;48.266;7.402;2024-01-10T07:18:16;100260.34;;;-0.55;66.02
43147;BME280;28752;48.266;7.402;2024-01-10T07:20:41;100263.59;;;-0.49;65.91
43147;BME280;28752;48.266;7.402;2024-01-10T07:23:06;100261.78;;;-0.47;65.57
43147;BME280;28752;48.266;7.402;2024-01-10T07:25:32;100270.41;;;-0.45;65.42
43147;BME280;28752;48.266;7.402;2024-01-10T07:27:58;100268.75;;;-0.48;65.17
43147;BME280;28752;48.266;7.402;2024-01-10T07:30:24;100276.69;;;-0.51;65.09
43147;BME280;28752;48.266;7.402;2024-01-10T07:32:49;100273.34;;;-0.55;64.85
43147;BME280;28752;48.266;7.402;2024-01-10T07:35:14;100271.81;;;-0.60;65.15
43147;BME280;28752;48.266;7.402;2024-01-10T07:37:41;100270.97;;;-0.61;64.91
43147;BME280;28752;48.266;7.402;2024-01-10T07:40:07;100277.28;;;-0.68;64.65
43147;BME280;28752;48.266;7.402;2024-01-10T07:42:37;100280.25;;;-0.79;64.59
43147;BME280;28752;48.266;7.402;2024-01-10T07:45:03;100290.59;;;-0.77;64.60
43147;BME280;28752;48.266;7.402;2024-01-10T07:47:33;100288.69;;;-0.72;64.28
43147;BME280;28752;48.266;7.402;2024-01-10T07:49:59;100286.97;;;-0.73;64.18
43147;BME280;28752;48.266;7.402;2024-01-10T07:52:25;100288.72;;;-0.74;64.00
43147;BME280;28752;48.266;7.402;2024-01-10T07:54:50;100287.72;;;-0.69;64.04
43147;BME280;28752;48.266;7.402;2024-01-10T07:57:16;100295.66;;;-0.73;63.95
43147;BME280;28752;48.266;7.402;2024-01-10T07:59:44;100294.72;;;-0.72;63.96
43147;BME280;28752;48.266;7.402;2024-01-10T08:02:09;100305.06;;;-0.70;63.69
43147;BME280;28752;48.266;7.402;2024-01-10T08:04:35;100300.69;;;-0.68;63.81
43147;BME280;28752;48.266;7.402;2024-01-10T08:07:00;100309.22;;;-0.64;63.81
43147;BME280;28752;48.266;7.402;2024-01-10T08:09:26;100307.41;;;-0.62;63.62
43147;BME280;28752;48.266;7.402;2024-01-10T08:11:51;100309.81;;;-0.56;63.47
43147;BME280;28752;48.266;7.402;2024-01-10T08:14:17;100312.09;;;-0.47;63.54
43147;BME280;28752;48.266;7.402;2024-01-10T08:16:42;100306.63;;;-0.39;63.40
43147;BME280;28752;48.266;7.402;2024-01-10T08:19:08;100310.59;;;-0.29;63.28
43147;BME280;28752;48.266;7.402;2024-01-10T08:21:33;100310.94;;;-0.14;63.31
43147;BME280;28752;48.266;7.402;2024-01-10T08:24:01;100309.88;;;-0.09;62.94
43147;BME280;28752;48.266;7.402;2024-01-10T08:26:27;100304.19;;;0.04;62.84
43147;BME280;28752;48.266;7.402;2024-01-10T08:28:52;100300.41;;;0.12;62.75
43147;BME280;28752;48.266;7.402;2024-01-10T08:31:17;100303.19;;;0.30;62.64
43147;BME280;28752;48.266;7.402;2024-01-10T08:33:43;100298.31;;;0.44;62.54
43147;BME280;28752;48.266;7.402;2024-01-10T08:36:08;100299.56;;;0.56;62.14
43147;BME280;28752;48.266;7.402;2024-01-10T08:38:35;100308.34;;;0.76;61.79
43147;BME280;28752;48.266;7.402;2024-01-10T08:41:00;100311.19;;;0.92;61.32
43147;BME280;28752;48.266;7.402;2024-01-10T08:43:26;100309.97;;;1.00;60.96
43147;BME280;28752;48.266;7.402;2024-01-10T08:45:51;100305.03;;;0.94;61.65
43147;BME280;28752;48.266;7.402;2024-01-10T08:48:17;100301.22;;;1.01;61.38
43147;BME280;28752;48.266;7.402;2024-01-10T08:50:42;100310.69;;;1.04;61.24
43147;BME280;28752;48.266;7.402;2024-01-10T08:53:09;100308.84;;;1.06;61.20
43147;BME280;28752;48.266;7.402;2024-01-10T08:55:35;100303.75;;;0.82;61.25
43147;BME280;28752;48.266;7.402;2024-01-10T08:58:02;100303.38;;;0.92;61.22
43147;BME280;28752;48.266;7.402;2024-01-10T09:00:28;100306.69;;;0.95;61.21
43147;BME280;28752;48.266;7.402;2024-01-10T09:02:54;100295.81;;;0.85;60.79
43147;BME280;28752;48.266;7.402;2024-01-10T09:05:20;100315.41;;;1.16;60.40
43147;BME280;28752;48.266;7.402;2024-01-10T09:07:47;100310.03;;;1.19;60.03
43147;BME280;28752;48.266;7.402;2024-01-10T09:10:12;100307.19;;;0.83;60.25
43147;BME280;28752;48.266;7.402;2024-01-10T09:12:38;100309.41;;;0.72;60.84
43147;BME280;28752;48.266;7.402;2024-01-10T09:15:03;100302.44;;;0.93;60.83
43147;BME280;28752;48.266;7.402;2024-01-10T09:17:29;100300.50;;;1.18;60.20
43147;BME280;28752;48.266;7.402;2024-01-10T09:19:54;100305.84;;;1.15;60.20
43147;BME280;28752;48.266;7.402;2024-01-10T09:22:20;100306.91;;;1.32;59.89
43147;BME280;28752;48.266;7.402;2024-01-10T09:24:45;100311.75;;;1.20;60.08
43147;BME280;28752;48.266;7.402;2024-01-10T09:27:11;100302.88;;;1.04;60.30
43147;BME280;28752;48.266;7.402;2024-01-10T09:29:36;100311.25;;;0.90;60.33
43147;BME280;28752;48.266;7.402;2024-01-10T09:32:02;100317.50;;;1.08;60.10
43147;BME280;28752;48.266;7.402;2024-01-10T09:34:27;100328.31;;;0.99;59.91
43147;BME280;28752;48.266;7.402;2024-01-10T09:36:53;100320.69;;;1.35;59.32
43147;BME280;28752;48.266;7.402;2024-01-10T09:39:19;100327.41;;;1.62;58.83
43147;BME280;28752;48.266;7.402;2024-01-10T09:41:48;100317.22;;;1.55;58.75
43147;BME280;28752;48.266;7.402;2024-01-10T09:44:16;100328.69;;;1.51;58.42
43147;BME280;28752;48.266;7.402;2024-01-10T09:46:48;100325.78;;;1.38;57.98
43147;BME280;28752;48.266;7.402;2024-01-10T09:49:16;100332.94;;;1.33;57.84
43147;BME280;28752;48.266;7.402;2024-01-10T09:51:41;100327.34;;;1.82;56.74
43147;BME280;28752;48.266;7.402;2024-01-10T09:54:07;100331.44;;;2.08;55.82
43147;BME280;28752;48.266;7.402;2024-01-10T09:56:32;100329.94;;;2.03;56.06
43147;BME280;28752;48.266;7.402;2024-01-10T09:59:01;100332.16;;;1.31;58.47
43147;BME280;28752;48.266;7.402;2024-01-10T10:01:30;100338.91;;;1.37;58.51
43147;BME280;28752;48.266;7.402;2024-01-10T10:03:56;100341.81;;;1.50;59.45
43147;BME280;28752;48.266;7.402;2024-01-10T10:06:21;100345.13;;;1.74;58.56
43147;BME280;28752;48.266;7.402;2024-01-10T10:08:47;100345.13;;;1.74;58.46
43147;BME280;28752;48.266;7.402;2024-01-10T10:11:13;100350.81;;;1.42;59.10
43147;BME280;28752;48.266;7.402;2024-01-10T10:13:41;100344.06;;;1.38;59.03
43147;BME280;28752;48.266;7.402;2024-01-10T10:16:07;100347.31;;;1.64;58.90
43147;BME280;28752;48.266;7.402;2024-01-10T10:18:39;100341.31;;;1.41;58.24
43147;BME280;28752;48.266;7.402;2024-01-10T10:21:14;100343.28;;;1.76;57.12
43147;BME280;28752;48.266;7.402;2024-01-10T10:24:05;100344.19;;;1.95;55.73
43147;BME280;28752;48.266;7.402;2024-01-10T10:26:33;100351.47;;;2.46;54.62
43147;BME280;28752;48.266;7.402;2024-01-10T10:28:59;100345.78;;;2.93;52.36
43147;BME280;28752;48.266;7.402;2024-01-10T10:31:24;100348.16;;;3.15;51.34
43147;BME280;28752;48.266;7.402;2024-01-10T10:33:51;100360.25;;;3.18;51.39
43147;BME280;28752;48.266;7.402;2024-01-10T10:36:17;100346.41;;;3.33;50.07
43147;BME280;28752;48.266;7.402;2024-01-10T10:38:43;100346.38;;;3.86;49.76
43147;BME280;28752;48.266;7.402;2024-01-10T10:41:08;100347.19;;;3.86;49.27
43147;BME280;28752;48.266;7.402;2024-01-10T10:43:38;100346.53;;;3.99;48.92
43147;BME280;28752;48.266;7.402;2024-01-10T10:46:05;100339.94;;;3.23;50.05
43147;BME280;28752;48.266;7.402;2024-01-10T10:48:35;100337.31;;;3.23;50.76
43147;BME280;28752;48.266;7.402;2024-01-10T10:53:27;100346.84;;;2.89;51.09
43147;BME280;28752;48.266;7.402;2024-01-10T10:55:56;100339.75;;;2.55;51.27
43147;BME280;28752;48.266;7.402;2024-01-10T10:58:22;100333.81;;;2.32;52.24
43147;BME280;28752;48.266;7.402;2024-01-10T11:00:47;100337.81;;;2.22;53.16
43147;BME280;28752;48.266;7.402;2024-01-10T11:03:14;100342.53;;;2.33;53.25
43147;BME280;28752;48.266;7.402;2024-01-10T11:05:40;100333.38;;;2.60;52.77
43147;BME280;28752;48.266;7.402;2024-01-10T11:08:08;100331.66;;;2.78;52.62
43147;BME280;28752;48.266;7.402;2024-01-10T11:10:36;100335.00;;;2.99;51.16
43147;BME280;28752;48.266;7.402;2024-01-10T11:19:05;100330.50;;;2.28;51.04
43147;BME280;28752;48.266;7.402;2024-01-10T11:24:20;100338.19;;;2.12;51.24
43147;BME280;28752;48.266;7.402;2024-01-10T11:26:46;100331.22;;;2.32;51.42
43147;BME280;28752;48.266;7.402;2024-01-10T11:29:11;100333.69;;;2.16;51.77
43147;BME280;28752;48.266;7.402;2024-01-10T11:31:38;100328.66;;;2.49;51.70
43147;BME280;28752;48.266;7.402;2024-01-10T11:34:03;100332.19;;;2.67;51.01
43147;BME280;28752;48.266;7.402;2024-01-10T11:36:28;100339.22;;;2.84;50.84
43147;BME280;28752;48.266;7.402;2024-01-10T11:38:58;100333.00;;;3.05;50.48
43147;BME280;28752;48.266;7.402;2024-01-10T11:41:35;100336.38;;;3.07;50.86
43147;BME280;28752;48.266;7.402;2024-01-10T11:46:48;100336.56;;;3.21;49.74
43147;BME280;28752;48.266;7.402;2024-01-10T11:49:15;100339.25;;;3.19;50.03
43147;BME280;28752;48.266;7.402;2024-01-10T11:51:49;100334.00;;;3.37;49.97
43147;BME280;28752;48.266;7.402;2024-01-10T11:57:02;100324.25;;;3.74;49.21
43147;BME280;28752;48.266;7.402;2024-01-10T11:59:29;100331.66;;;3.99;48.95
43147;BME280;28752;48.266;7.402;2024-01-10T12:01:55;100325.88;;;4.10;48.11
43147;BME280;28752;48.266;7.402;2024-01-10T12:04:20;100321.75;;;3.55;49.08
43147;BME280;28752;48.266;7.402;2024-01-10T12:06:46;100323.44;;;3.73;48.67
43147;BME280;28752;48.266;7.402;2024-01-10T12:09:12;100323.34;;;3.75;48.64
43147;BME280;28752;48.266;7.402;2024-01-10T12:11:39;100321.75;;;3.55;48.57
43147;BME280;28752;48.266;7.402;2024-01-10T12:14:05;100314.88;;;3.70;48.53
43147;BME280;28752;48.266;7.402;2024-01-10T12:16:34;100307.78;;;3.72;49.36
43147;BME280;28752;48.266;7.402;2024-01-10T12:18:59;100310.34;;;3.73;49.56
43147;BME280;28752;48.266;7.402;2024-01-10T12:21:24;100316.72;;;3.68;49.81
43147;BME280;28752;48.266;7.402;2024-01-10T12:23:50;100314.69;;;3.73;49.72
43147;BME280;28752;48.266;7.402;2024-01-10T12:26:18;100306.03;;;3.55;49.23
43147;BME280;28752;48.266;7.402;2024-01-10T12:28:53;100302.91;;;3.82;49.41
43147;BME280;28752;48.266;7.402;2024-01-10T12:31:19;100302.28;;;3.43;49.84
43147;BME280;28752;48.266;7.402;2024-01-10T12:33:44;100293.72;;;3.57;50.03
43147;BME280;28752;48.266;7.402;2024-01-10T12:36:10;100301.25;;;3.63;49.58
43147;BME280;28752;48.266;7.402;2024-01-10T12:38:37;100293.44;;;3.11;51.16
43147;BME280;28752;48.266;7.402;2024-01-10T12:41:03;100305.38;;;3.16;50.60
43147;BME280;28752;48.266;7.402;2024-01-10T12:43:30;100307.66;;;3.40;49.71
43147;BME280;28752;48.266;7.402;2024-01-10T12:46:05;100302.97;;;3.29;49.68
43147;BME280;28752;48.266;7.402;2024-01-10T12:48:30;100300.38;;;3.12;51.01
43147;BME280;28752;48.266;7.402;2024-01-10T12:50:57;100285.81;;;3.06;51.30
43147;BME280;28752;48.266;7.402;2024-01-10T12:53:22;100293.75;;;3.22;51.19
43147;BME280;28752;48.266;7.402;2024-01-10T12:55:48;100294.50;;;3.07;51.41
43147;BME280;28752;48.266;7.402;2024-01-10T12:58:13;100305.34;;;2.81;51.78
43147;BME280;28752;48.266;7.402;2024-01-10T13:00:38;100306.41;;;2.77;52.33
43147;BME280;28752;48.266;7.402;2024-01-10T13:03:05;100301.56;;;2.70;52.83
43147;BME280;28752;48.266;7.402;2024-01-10T13:05:30;100305.53;;;2.59;52.99
43147;BME280;28752;48.266;7.402;2024-01-10T13:07:56;100299.75;;;2.53;52.85